Terminal Aerodrome Forecast
Issued by NWS

Home | Current Version | Previous Version | Text Only | Print | Product List | Glossary On
Versions: 1 2 3 4 5 6 7 8 9 10 11 12 13
000
FTUS42 KMLB 221100
TAFFPR
TAF
KFPR 221131Z 2212/2312 00000KT P6SM FEW030 SCT250
     FM221400 20004KT P6SM FEW035
     FM221600 09008KT P6SM SCT035
     FM222300 13006KT P6SM SCT040 SCT200=

USA.gov is the U.S. government's official web portal to all federal, state and local government web resources and services.